Time,TemperatureF,DewpointF,PressureIn,WindDirection,WindDirectionDegrees,WindSpeedMPH,WindSpeedGustMPH,Humidity,HourlyPrecipIn,Conditions,Clouds,dailyrainin,SoftwareType,DateUTC
2013-04-08 00:03:00,58.0,-99.9,30.19,North,-999,-999.0,-999.0,-999,-99.99,,,-99.99,,2013-04-08 04:03:00,
2013-04-08 00:13:00,58.0,-99.9,30.19,North,-999,-999.0,-999.0,-999,-99.99,,,-99.99,,2013-04-08 04:13:00,
2013-04-08 00:23:00,58.0,-99.9,30.19,North,-999,-999.0,-999.0,-999,-99.99,,,-99.99,,2013-04-08 04:23:00,
2013-04-08 00:34:00,58.0,-99.9,30.19,North,-999,-999.0,-999.0,-999,-99.99,,,-99.99,,2013-04-08 04:34:00,
2013-04-08 00:45:00,58.0,-99.9,30.19,North,-999,-999.0,-999.0,-999,-99.99,,,-99.99,,2013-04-08 04:45:00,
2013-04-08 00:53:00,-999.0,-99.9,30.19,South,187,9.0,9.0,-999,-99.99,,,-99.99,,2013-04-08 04:53:00,
2013-04-08 01:03:00,-999.0,-99.9,30.19,South,189,7.0,9.0,-999,-99.99,,,-99.99,,2013-04-08 05:03:00,
2013-04-08 01:12:00,-999.0,-99.9,30.19,South,189,8.0,9.0,-999,-99.99,,,-99.99,,2013-04-08 05:12:00,
2013-04-08 01:22:00,-999.0,-99.9,30.19,South,189,8.0,9.0,-999,-99.99,,,-99.99,,2013-04-08 05:22:00,
2013-04-08 01:32:00,-999.0,-99.9,30.18,South,188,9.0,10.0,-999,-99.99,,,-99.99,,2013-04-08 05:32:00,
2013-04-08 01:42:00,58.0,-99.9,30.16,South,187,11.0,13.0,-999,-99.99,,,-99.99,,2013-04-08 05:42:00,
2013-04-08 01:53:00,59.0,-99.9,30.17,North,-999,-999.0,-999.0,-999,-99.99,,,-99.99,,2013-04-08 05:53:00,
2013-04-08 02:02:00,-999.0,-99.9,30.17,SSW,192,8.0,10.0,-999,-99.99,,,-99.99,,2013-04-08 06:02:00,
2013-04-08 02:12:00,58.0,-99.9,30.16,South,191,8.0,10.0,-999,-99.99,,,-99.99,,2013-04-08 06:12:00,
2013-04-08 02:22:00,-999.0,-99.9,30.16,SSW,193,9.0,10.0,-999,-99.99,,,-99.99,,2013-04-08 06:22:00,
2013-04-08 02:32:00,59.0,-99.9,30.16,North,-999,-999.0,-999.0,-999,-99.99,,,-99.99,,2013-04-08 06:32:00,
2013-04-08 02:43:00,-999.0,-99.9,30.16,SSW,199,8.0,10.0,-999,-99.99,,,-99.99,,2013-04-08 06:43:00,
2013-04-08 02:53:00,59.0,-99.9,30.16,North,-999,-999.0,-999.0,-999,-99.99,,,-99.99,,2013-04-08 06:53:00,
2013-04-08 03:02:00,-999.0,-99.9,30.15,South,189,8.0,10.0,-999,-99.99,,,-99.99,,2013-04-08 07:02:00,
2013-04-08 03:12:00,59.0,-99.9,30.15,SSW,193,8.0,9.0,-999,-99.99,,,-99.99,,2013-04-08 07:12:00,
2013-04-08 03:22:00,59.0,-99.9,30.15,SSW,193,8.0,9.0,-999,-99.99,,,-99.99,,2013-04-08 07:22:00,
2013-04-08 03:33:00,59.0,-99.9,30.15,SSW,193,8.0,9.0,-999,-99.99,,,-99.99,,2013-04-08 07:33:00,
2013-04-08 03:42:00,-999.0,-99.9,30.15,South,189,8.0,10.0,-999,-99.99,,,-99.99,,2013-04-08 07:42:00,
2013-04-08 03:53:00,-999.0,-99.9,30.15,South,184,6.0,8.0,-999,-99.99,,,-99.99,,2013-04-08 07:53:00,
2013-04-08 04:02:00,58.0,-99.9,30.14,North,-999,-999.0,-999.0,-999,-99.99,,,-99.99,,2013-04-08 08:02:00,
2013-04-08 04:12:00,58.0,-99.9,30.14,North,-999,-999.0,-999.0,-999,-99.99,,,-99.99,,2013-04-08 08:12:00,
2013-04-08 04:22:00,58.0,-99.9,30.14,North,-999,-999.0,-999.0,-999,-99.99,,,-99.99,,2013-04-08 08:22:00,
2013-04-08 04:33:00,58.0,-99.9,30.14,North,-999,-999.0,-999.0,-999,-99.99,,,-99.99,,2013-04-08 08:33:00,
2013-04-08 04:43:00,57.0,-99.9,30.15,South,184,5.0,5.0,-999,-99.99,,,-99.99,,2013-04-08 08:43:00,
2013-04-08 04:52:00,57.0,-99.9,30.15,North,-999,-999.0,-999.0,-999,-99.99,,,-99.99,,2013-04-08 08:52:00,
2013-04-08 05:03:00,-999.0,-99.9,30.15,South,184,4.0,5.0,-999,-99.99,,,-99.99,,2013-04-08 09:03:00,
2013-04-08 05:12:00,57.0,-99.9,30.15,South,184,4.0,5.0,-999,-99.99,,,-99.99,,2013-04-08 09:12:00,
2013-04-08 05:23:00,-999.0,-99.9,30.15,South,183,4.0,5.0,-999,-99.99,,,-99.99,,2013-04-08 09:23:00,
2013-04-08 05:34:00,-999.0,-99.9,30.15,South,177,4.0,6.0,-999,-99.99,,,-99.99,,2013-04-08 09:34:00,
2013-04-08 05:43:00,57.0,-99.9,30.15,North,-999,-999.0,-999.0,-999,-99.99,,,-99.99,,2013-04-08 09:43:00,
2013-04-08 05:53:00,-999.0,-99.9,30.15,South,189,3.0,4.0,-999,-99.99,,,-99.99,,2013-04-08 09:53:00,
2013-04-08 06:03:00,-999.0,-99.9,30.16,SSW,192,4.0,4.0,-999,-99.99,,,-99.99,,2013-04-08 10:03:00,
2013-04-08 06:13:00,-999.0,-99.9,30.16,SSW,193,4.0,5.0,-999,-99.99,,,-99.99,,2013-04-08 10:13:00,
2013-04-08 06:23:00,-999.0,-99.9,30.16,SSW,194,5.0,5.0,-999,-99.99,,,-99.99,,2013-04-08 10:23:00,
2013-04-08 06:33:00,57.0,-99.9,30.17,North,-999,-999.0,-999.0,-999,-99.99,,,-99.99,,2013-04-08 10:33:00,
2013-04-08 06:43:00,57.0,-99.9,30.17,North,-999,-999.0,-999.0,-999,-99.99,,,-99.99,,2013-04-08 10:43:00,
2013-04-08 06:53:00,57.0,-99.9,30.17,North,-999,-999.0,-999.0,-999,-99.99,,,-99.99,,2013-04-08 10:53:00,
2013-04-08 07:03:00,57.0,-99.9,30.18,North,-999,-999.0,-999.0,-999,-99.99,,,-99.99,,2013-04-08 11:03:00,
2013-04-08 07:12:00,57.0,-99.9,30.18,South,178,3.0,4.0,-999,-99.99,,,-99.99,,2013-04-08 11:12:00,
2013-04-08 07:23:00,57.0,-99.9,30.18,North,-999,-999.0,-999.0,-999,-99.99,,,-99.99,,2013-04-08 11:23:00,
2013-04-08 07:33:00,57.0,-99.9,30.19,North,-999,-999.0,-999.0,-999,-99.99,,,-99.99,,2013-04-08 11:33:00,
2013-04-08 07:43:00,-999.0,-99.9,30.19,South,178,2.0,3.0,-999,-99.99,,,-99.99,,2013-04-08 11:43:00,
2013-04-08 07:53:00,58.0,-99.9,30.19,North,-999,-999.0,-999.0,-999,-99.99,,,-99.99,,2013-04-08 11:53:00,
2013-04-08 08:04:00,-999.0,-99.9,30.20,South,188,3.0,4.0,-999,-99.99,,,-99.99,,2013-04-08 12:04:00,
2013-04-08 08:12:00,59.0,-99.9,30.20,South,188,4.0,5.0,-999,-99.99,,,-99.99,,2013-04-08 12:12:00,
2013-04-08 08:23:00,59.0,-99.9,30.20,North,-999,-999.0,-999.0,-999,-99.99,,,-99.99,,2013-04-08 12:23:00,
2013-04-08 08:33:00,-999.0,-99.9,30.21,SSW,192,5.0,5.0,-999,-99.99,,,-99.99,,2013-04-08 12:33:00,
2013-04-08 08:43:00,59.0,-99.9,30.21,North,-999,-999.0,-999.0,-999,-99.99,,,-99.99,,2013-04-08 12:43:00,
2013-04-08 08:53:00,61.0,-99.9,30.21,North,-999,-999.0,-999.0,-999,-99.99,,,-99.99,,2013-04-08 12:53:00,
2013-04-08 09:03:00,61.0,-99.9,30.21,North,-999,-999.0,-999.0,-999,-99.99,,,-99.99,,2013-04-08 13:03:00,
2013-04-08 09:12:00,62.0,-99.9,30.21,North,-999,-999.0,-999.0,-999,-99.99,,,-99.99,,2013-04-08 13:12:00,
2013-04-08 09:22:00,-999.0,-99.9,30.22,SW,218,4.0,8.0,-999,-99.99,,,-99.99,,2013-04-08 13:22:00,
2013-04-08 09:33:00,64.0,-99.9,30.22,North,-999,-999.0,-999.0,-999,-99.99,,,-99.99,,2013-04-08 13:33:00,
2013-04-08 09:43:00,64.0,-99.9,30.22,North,-999,-999.0,-999.0,-999,-99.99,,,-99.99,,2013-04-08 13:43:00,
2013-04-08 09:53:00,64.0,-99.9,30.22,North,-999,-999.0,-999.0,-999,-99.99,,,-99.99,,2013-04-08 13:53:00,
2013-04-08 10:03:00,64.0,-99.9,30.22,North,-999,-999.0,-999.0,-999,-99.99,,,-99.99,,2013-04-08 14:03:00,
2013-04-08 10:12:00,64.0,-99.9,30.22,North,-999,-999.0,-999.0,-999,-99.99,,,-99.99,,2013-04-08 14:12:00,
2013-04-08 10:22:00,62.0,-99.9,30.22,North,-999,-999.0,-999.0,-999,-99.99,,,-99.99,,2013-04-08 14:22:00,
2013-04-08 10:33:00,-999.0,-99.9,30.22,South,181,4.0,5.0,-999,-99.99,,,-99.99,,2013-04-08 14:33:00,
2013-04-08 10:43:00,62.0,-99.9,30.22,South,188,4.0,4.0,-999,-99.99,,,-99.99,,2013-04-08 14:43:00,
2013-04-08 10:53:00,-999.0,-99.9,30.22,SSW,194,4.0,5.0,-999,-99.99,,,-99.99,,2013-04-08 14:53:00,
2013-04-08 11:02:00,-999.0,-99.9,30.22,SW,215,5.0,7.0,-999,-99.99,,,-99.99,,2013-04-08 15:02:00,
2013-04-08 11:12:00,-999.0,-99.9,30.22,SW,215,6.0,8.0,-999,-99.99,,,-99.99,,2013-04-08 15:12:00,
2013-04-08 11:22:00,67.0,-99.9,30.22,North,-999,-999.0,-999.0,-999,-99.99,,,-99.99,,2013-04-08 15:22:00,
2013-04-08 11:35:00,-999.0,-99.9,30.22,South,182,7.0,10.0,-999,-99.99,,,-99.99,,2013-04-08 15:35:00,
2013-04-08 11:43:00,62.0,-99.9,30.22,South,190,6.0,8.0,-999,-99.99,,,-99.99,,2013-04-08 15:43:00,
2013-04-08 11:53:00,63.0,-99.9,30.22,North,-999,-999.0,-999.0,-999,-99.99,,,-99.99,,2013-04-08 15:53:00,
2013-04-08 12:03:00,-999.0,-99.9,30.21,South,183,7.0,8.0,-999,-99.99,,,-99.99,,2013-04-08 16:03:00,
2013-04-08 12:13:00,-999.0,-99.9,30.21,South,186,6.0,7.0,-999,-99.99,,,-99.99,,2013-04-08 16:13:00,
2013-04-08 12:23:00,-999.0,-99.9,30.21,SSW,201,9.0,11.0,-999,-99.99,,,-99.99,,2013-04-08 16:23:00,
2013-04-08 12:33:00,-999.0,-99.9,30.21,SSW,201,9.0,11.0,-999,-99.99,,,-99.99,,2013-04-08 16:33:00,
2013-04-08 12:42:00,65.0,-99.9,30.21,North,-999,-999.0,-999.0,-999,-99.99,,,-99.99,,2013-04-08 16:42:00,
2013-04-08 12:54:00,65.0,-99.9,30.20,North,-999,-999.0,-999.0,-999,-99.99,,,-99.99,,2013-04-08 16:54:00,
2013-04-08 13:03:00,-999.0,-99.9,30.20,SSW,200,10.0,12.0,-999,-99.99,,,-99.99,,2013-04-08 17:03:00,
2013-04-08 13:12:00,-999.0,-99.9,30.20,SSW,202,11.0,13.0,-999,-99.99,,,-99.99,,2013-04-08 17:12:00,
2013-04-08 13:23:00,64.0,-99.9,30.20,North,-999,-999.0,-999.0,-999,-99.99,,,-99.99,,2013-04-08 17:23:00,
2013-04-08 13:33:00,-999.0,-99.9,30.19,South,181,10.0,11.0,-999,-99.99,,,-99.99,,2013-04-08 17:33:00,
2013-04-08 13:45:00,64.0,-99.9,30.19,North,-999,-999.0,-999.0,-999,-99.99,,,-99.99,,2013-04-08 17:45:00,
2013-04-08 13:53:00,-999.0,-99.9,30.19,South,184,11.0,12.0,-999,-99.99,,,-99.99,,2013-04-08 17:53:00,
2013-04-08 14:02:00,-999.0,-99.9,30.19,South,184,11.0,13.0,-999,-99.99,,,-99.99,,2013-04-08 18:02:00,
2013-04-08 14:12:00,64.0,-99.9,30.18,South,185,12.0,13.0,-999,-99.99,,,-99.99,,2013-04-08 18:12:00,
2013-04-08 14:23:00,63.0,-99.9,30.18,North,-999,-999.0,-999.0,-999,-99.99,,,-99.99,,2013-04-08 18:23:00,
2013-04-08 14:32:00,64.0,-99.9,30.18,North,-999,-999.0,-999.0,-999,-99.99,,,-99.99,,2013-04-08 18:32:00,
2013-04-08 14:43:00,64.0,-99.9,30.18,North,-999,-999.0,-999.0,-999,-99.99,,,-99.99,,2013-04-08 18:43:00,
2013-04-08 14:53:00,64.0,-99.9,30.18,North,-999,-999.0,-999.0,-999,-99.99,,,-99.99,,2013-04-08 18:53:00,
2013-04-08 15:03:00,-999.0,-99.9,30.18,SSW,194,13.0,16.0,-999,-99.99,,,-99.99,,2013-04-08 19:03:00,
2013-04-08 15:13:00,65.0,-99.9,30.17,SSW,196,14.0,15.0,-999,-99.99,,,-99.99,,2013-04-08 19:13:00,
2013-04-08 15:23:00,-999.0,-99.9,30.17,SSW,198,14.0,18.0,-999,-99.99,,,-99.99,,2013-04-08 19:23:00,
2013-04-08 15:34:00,64.0,-99.9,30.16,North,-999,-999.0,-999.0,-999,-99.99,,,-99.99,,2013-04-08 19:34:00,
2013-04-08 15:43:00,-999.0,-99.9,30.16,South,187,13.0,16.0,-999,-99.99,,,-99.99,,2013-04-08 19:43:00,
2013-04-08 15:53:00,-999.0,-99.9,30.15,South,186,14.0,15.0,-999,-99.99,,,-99.99,,2013-04-08 19:53:00,
2013-04-08 16:02:00,64.0,-99.9,30.15,North,-999,-999.0,-999.0,-999,-99.99,,,-99.99,,2013-04-08 20:02:00,
2013-04-08 16:12:00,64.0,-99.9,30.14,South,188,14.0,17.0,-999,-99.99,,,-99.99,,2013-04-08 20:12:00,
2013-04-08 16:23:00,64.0,-99.9,30.14,North,-999,-999.0,-999.0,-999,-99.99,,,-99.99,,2013-04-08 20:23:00,
2013-04-08 16:33:00,64.0,-99.9,30.14,North,-999,-999.0,-999.0,-999,-99.99,,,-99.99,,2013-04-08 20:33:00,
2013-04-08 16:43:00,-999.0,-99.9,30.14,South,191,14.0,17.0,-999,-99.99,,,-99.99,,2013-04-08 20:43:00,
2013-04-08 16:53:00,64.0,-99.9,30.14,North,-999,-999.0,-999.0,-999,-99.99,,,-99.99,,2013-04-08 20:53:00,
2013-04-08 17:02:00,64.0,-99.9,30.14,North,-999,-999.0,-999.0,-999,-99.99,,,-99.99,,2013-04-08 21:02:00,
2013-04-08 17:12:00,65.0,-99.9,30.14,SSW,197,13.0,17.0,-999,-99.99,,,-99.99,,2013-04-08 21:12:00,
2013-04-08 17:22:00,-999.0,-99.9,30.14,SSW,198,14.0,16.0,-999,-99.99,,,-99.99,,2013-04-08 21:22:00,
2013-04-08 17:33:00,-999.0,-99.9,30.15,SSW,201,12.0,15.0,-999,-99.99,,,-99.99,,2013-04-08 21:33:00,
2013-04-08 17:43:00,-999.0,-99.9,30.15,SSW,202,12.0,15.0,-999,-99.99,,,-99.99,,2013-04-08 21:43:00,
2013-04-08 17:53:00,-999.0,-99.9,30.15,SSW,204,12.0,15.0,-999,-99.99,,,-99.99,,2013-04-08 21:53:00,
2013-04-08 18:03:00,65.0,-99.9,30.14,North,-999,-999.0,-999.0,-999,-99.99,,,-99.99,,2013-04-08 22:03:00,
2013-04-08 18:23:00,-999.0,-99.9,30.15,SSW,201,12.0,16.0,-999,-99.99,,,-99.99,,2013-04-08 22:23:00,
2013-04-08 18:32:00,-999.0,-99.9,30.15,SSW,201,12.0,16.0,-999,-99.99,,,-99.99,,2013-04-08 22:32:00,
2013-04-08 18:44:00,-999.0,-99.9,30.15,SSW,198,12.0,16.0,-999,-99.99,,,-99.99,,2013-04-08 22:44:00,
2013-04-08 18:53:00,-999.0,-99.9,30.14,SSW,199,13.0,16.0,-999,-99.99,,,-99.99,,2013-04-08 22:53:00,
2013-04-08 19:03:00,64.0,-99.9,30.15,North,-999,-999.0,-999.0,-999,-99.99,,,-99.99,,2013-04-08 23:03:00,
2013-04-08 19:13:00,-999.0,-99.9,30.14,South,191,13.0,15.0,-999,-99.99,,,-99.99,,2013-04-08 23:13:00,
2013-04-08 19:22:00,-999.0,-99.9,30.14,South,191,13.0,15.0,-999,-99.99,,,-99.99,,2013-04-08 23:22:00,
2013-04-08 19:32:00,62.0,-99.9,30.15,North,-999,-999.0,-999.0,-999,-99.99,,,-99.99,,2013-04-08 23:32:00,
2013-04-08 19:43:00,62.0,-99.9,30.15,North,-999,-999.0,-999.0,-999,-99.99,,,-99.99,,2013-04-08 23:43:00,
2013-04-08 19:52:00,-999.0,-99.9,30.15,South,187,11.0,13.0,-999,-99.99,,,-99.99,,2013-04-08 23:52:00,
2013-04-08 20:02:00,61.0,-99.9,30.15,North,-999,-999.0,-999.0,-999,-99.99,,,-99.99,,2013-04-09 00:02:00,
2013-04-08 20:13:00,62.0,-99.9,30.15,South,189,11.0,11.0,-999,-99.99,,,-99.99,,2013-04-09 00:13:00,
2013-04-08 20:22:00,-999.0,-99.9,30.15,South,189,10.0,12.0,-999,-99.99,,,-99.99,,2013-04-09 00:22:00,
2013-04-08 20:32:00,-999.0,-99.9,30.16,South,188,9.0,11.0,-999,-99.99,,,-99.99,,2013-04-09 00:32:00,
2013-04-08 20:42:00,61.0,-99.9,30.16,North,-999,-999.0,-999.0,-999,-99.99,,,-99.99,,2013-04-09 00:42:00,
2013-04-08 20:52:00,-999.0,-99.9,30.16,South,188,10.0,12.0,-999,-99.99,,,-99.99,,2013-04-09 00:52:00,
2013-04-08 21:03:00,61.0,-99.9,30.16,North,-999,-999.0,-999.0,-999,-99.99,,,-99.99,,2013-04-09 01:03:00,
2013-04-08 21:12:00,61.0,-99.9,30.16,North,-999,-999.0,-999.0,-999,-99.99,,,-99.99,,2013-04-09 01:12:00,
2013-04-08 21:22:00,-999.0,-99.9,30.16,South,191,10.0,12.0,-999,-99.99,,,-99.99,,2013-04-09 01:22:00,
2013-04-08 21:42:00,62.0,-99.9,30.16,North,-999,-999.0,-999.0,-999,-99.99,,,-99.99,,2013-04-09 01:42:00,
2013-04-08 21:53:00,-999.0,-99.9,30.17,SSW,198,12.0,15.0,-999,-99.99,,,-99.99,,2013-04-09 01:53:00,
2013-04-08 22:02:00,-999.0,-99.9,30.17,SSW,201,13.0,14.0,-999,-99.99,,,-99.99,,2013-04-09 02:02:00,
2013-04-08 22:13:00,63.0,-99.9,30.17,SSW,203,12.0,17.0,-999,-99.99,,,-99.99,,2013-04-09 02:13:00,
2013-04-08 22:22:00,63.0,-99.9,30.17,North,-999,-999.0,-999.0,-999,-99.99,,,-99.99,,2013-04-09 02:22:00,
2013-04-08 22:33:00,-999.0,-99.9,30.17,SSW,204,11.0,15.0,-999,-99.99,,,-99.99,,2013-04-09 02:33:00,
2013-04-08 22:44:00,-999.0,-99.9,30.17,SSW,203,13.0,16.0,-999,-99.99,,,-99.99,,2013-04-09 02:44:00,
2013-04-08 22:52:00,63.0,-99.9,30.18,North,-999,-999.0,-999.0,-999,-99.99,,,-99.99,,2013-04-09 02:52:00,
2013-04-08 23:02:00,63.0,-99.9,30.18,North,-999,-999.0,-999.0,-999,-99.99,,,-99.99,,2013-04-09 03:02:00,
2013-04-08 23:12:00,-999.0,-99.9,30.18,SSW,205,10.0,14.0,-999,-99.99,,,-99.99,,2013-04-09 03:12:00,
2013-04-08 23:22:00,-999.0,-99.9,30.18,SSW,206,9.0,14.0,-999,-99.99,,,-99.99,,2013-04-09 03:22:00,
2013-04-08 23:33:00,-999.0,-99.9,30.18,SSW,206,9.0,12.0,-999,-99.99,,,-99.99,,2013-04-09 03:33:00,
2013-04-08 23:44:00,62.0,-99.9,30.18,North,-999,-999.0,-999.0,-999,-99.99,,,-99.99,,2013-04-09 03:44:00,
2013-04-08 23:53:00,62.0,-99.9,30.18,North,-999,-999.0,-999.0,-999,-99.99,,,-99.99,,2013-04-09 03:53:00,